Time;durP1;ratioP1;P1;durP2;ratioP2;P2;SDS_P1;SDS_P2;PMS_P1;PMS_P2;Temp;Humidity;BMP_temperature;BMP_pressure;BME280_temperature;BME280_humidity;BME280_pressure;Samples;Min_cycle;Max_cycle;Signal;HPM_P1;HPM_P2
2021/08/05 00:02:15;;;;;;;5.35;4.60;;;24.70;57.70;;;;;;5037107;28;20025;-71
2021/08/05 00:04:41;;;;;;;8.93;5.05;;;24.80;57.50;;;;;;5036927;28;20030;-71
2021/08/05 00:07:07;;;;;;;4.40;3.97;;;24.80;57.40;;;;;;5037460;28;20116;-71
2021/08/05 00:09:33;;;;;;;5.35;4.85;;;24.80;57.40;;;;;;5037100;28;20451;-71
2021/08/05 00:11:59;;;;;;;6.65;4.30;;;24.80;57.30;;;;;;5036822;28;20060;-72
2021/08/05 00:14:25;;;;;;;6.32;4.70;;;24.80;57.20;;;;;;5037107;28;20068;-71
2021/08/05 00:16:51;;;;;;;4.47;4.07;;;24.80;57.10;;;;;;5036985;28;20452;-71
2021/08/05 00:19:17;;;;;;;7.18;4.80;;;24.80;57.20;;;;;;5036804;28;20028;-71
2021/08/05 00:21:43;;;;;;;5.50;4.07;;;24.80;57.10;;;;;;5036494;28;20380;-71
2021/08/05 00:24:08;;;;;;;4.68;4.05;;;24.80;57.10;;;;;;5036597;28;20117;-71
2021/08/05 00:26:34;;;;;;;5.60;3.92;;;24.90;57.10;;;;;;5035409;28;20471;-71
2021/08/05 00:29:00;;;;;;;6.68;4.13;;;24.90;57.10;;;;;;5036561;28;20491;-71
2021/08/05 00:31:26;;;;;;;4.93;3.78;;;24.90;57.20;;;;;;5036587;28;20471;-71
2021/08/05 00:33:51;;;;;;;5.38;3.95;;;24.90;56.90;;;;;;5036487;28;20036;-71
2021/08/05 00:36:18;;;;;;;4.55;3.85;;;24.80;56.50;;;;;;5036426;28;20056;-71
2021/08/05 00:38:43;;;;;;;8.90;3.78;;;24.80;56.40;;;;;;5036426;28;20029;-71
2021/08/05 00:41:09;;;;;;;3.85;3.40;;;24.80;56.30;;;;;;5036624;28;20475;-71
2021/08/05 00:43:35;;;;;;;4.43;3.88;;;24.80;56.10;;;;;;5036271;28;20025;-71
2021/08/05 00:46:02;;;;;;;4.65;3.83;;;24.80;55.90;;;;;;5036209;28;20559;-72
2021/08/05 00:48:28;;;;;;;4.38;3.92;;;24.80;55.60;;;;;;5036168;28;20037;-73
2021/08/05 00:50:54;;;;;;;4.22;3.53;;;24.80;55.60;;;;;;5036212;28;20211;-71
2021/08/05 00:53:20;;;;;;;5.38;3.88;;;24.90;55.60;;;;;;5036137;28;20030;-71
2021/08/05 00:55:46;;;;;;;7.20;3.97;;;24.90;55.50;;;;;;5036069;28;20044;-71
2021/08/05 00:58:12;;;;;;;4.28;3.88;;;24.90;55.30;;;;;;5035889;28;20369;-71
2021/08/05 01:00:40;;;;;;;5.30;4.18;;;24.90;55.20;;;;;;5035669;28;20025;-71
2021/08/05 01:03:19;;;;;;;4.55;4.07;;;24.80;55.10;;;;;;5035743;28;20048;-72
2021/08/05 01:05:52;;;;;;;4.88;3.97;;;24.80;55.10;;;;;;5036349;28;20361;-72
2021/08/05 01:08:24;;;;;;;4.75;3.80;;;24.80;55.00;;;;;;5034886;28;20037;-71
2021/08/05 01:11:06;;;;;;;5.80;4.13;;;24.80;55.00;;;;;;5035236;28;20455;-72
2021/08/05 01:13:52;;;;;;;6.10;3.80;;;24.80;55.00;;;;;;5035723;28;20029;-72
2021/08/05 01:16:22;;;;;;;5.45;4.10;;;24.70;55.00;;;;;;5035751;28;20485;-71
2021/08/05 01:18:49;;;;;;;5.93;4.00;;;24.70;55.10;;;;;;5035514;28;20032;-72
2021/08/05 01:21:28;;;;;;;5.35;4.43;;;24.70;55.10;;;;;;5036372;28;20048;-71
2021/08/05 01:23:59;;;;;;;6.78;4.68;;;24.50;55.30;;;;;;5036348;28;20026;-72
2021/08/05 01:26:31;;;;;;;4.78;4.32;;;24.40;56.20;;;;;;5035931;28;20388;-71
2021/08/05 01:28:59;;;;;;;5.75;4.30;;;24.30;56.70;;;;;;5034930;28;20021;-73
2021/08/05 01:31:28;;;;;;;9.00;5.13;;;24.20;57.20;;;;;;5035951;28;20371;-72
2021/08/05 01:33:55;;;;;;;6.68;4.60;;;24.20;58.30;;;;;;5035790;28;20032;-71
2021/08/05 01:36:24;;;;;;;5.85;4.93;;;24.10;58.10;;;;;;5034980;28;20147;-72
2021/08/05 01:38:51;;;;;;;5.32;4.60;;;24.00;58.30;;;;;;5035162;28;20017;-72
2021/08/05 01:41:17;;;;;;;7.32;5.15;;;24.00;58.60;;;;;;5035482;28;20032;-73
2021/08/05 01:43:45;;;;;;;5.32;4.82;;;24.00;59.30;;;;;;5035385;28;20349;-71
2021/08/05 01:46:12;;;;;;;5.97;5.18;;;24.00;60.10;;;;;;5035148;28;20539;-72
2021/08/05 01:48:38;;;;;;;8.30;5.28;;;23.90;60.60;;;;;;5035672;28;20033;-72
2021/08/05 01:51:05;;;;;;;8.32;5.72;;;24.00;61.50;;;;;;5033915;28;20030;-73
2021/08/05 01:53:33;;;;;;;8.68;7.05;;;23.90;62.40;;;;;;5035619;28;20148;-71
2021/08/05 01:55:58;;;;;;;8.57;7.03;;;24.00;63.80;;;;;;5035193;28;20037;-72
2021/08/05 01:58:24;;;;;;;9.80;7.00;;;23.90;64.40;;;;;;5035242;28;20029;-72
2021/08/05 02:00:50;;;;;;;9.13;6.70;;;23.90;64.70;;;;;;5035605;28;20025;-72
2021/08/05 02:03:16;;;;;;;10.80;7.13;;;23.90;65.00;;;;;;5035028;28;20053;-72
2021/08/05 02:06:10;;;;;;;10.88;7.38;;;24.00;65.20;;;;;;5035159;28;20044;-72
2021/08/05 02:08:48;;;;;;;9.48;7.18;;;24.00;65.50;;;;;;5034798;28;20119;-72
2021/08/05 02:11:14;;;;;;;8.10;7.10;;;24.00;65.50;;;;;;5034800;28;20029;-72
2021/08/05 02:13:43;;;;;;;8.40;7.43;;;24.10;65.60;;;;;;5034580;28;20030;-72
2021/08/05 02:16:13;;;;;;;9.52;7.03;;;24.10;65.90;;;;;;5034539;28;20390;-72
2021/08/05 02:18:43;;;;;;;8.88;6.85;;;24.10;66.00;;;;;;5034466;28;20212;-72
2021/08/05 02:21:10;;;;;;;10.45;7.85;;;24.20;66.10;;;;;;5034008;28;20036;-72
2021/08/05 02:23:36;;;;;;;8.18;7.38;;;24.20;66.30;;;;;;5035044;28;20080;-72
2021/08/05 02:26:02;;;;;;;9.60;7.55;;;24.20;66.40;;;;;;5034310;28;20075;-72
2021/08/05 02:28:30;;;;;;;9.95;7.53;;;24.20;66.50;;;;;;5034459;28;20041;-72
2021/08/05 02:30:58;;;;;;;9.65;7.50;;;24.20;66.60;;;;;;5034868;28;20471;-72
2021/08/05 02:33:26;;;;;;;8.63;7.53;;;24.20;66.80;;;;;;5034360;28;20352;-72
2021/08/05 02:35:53;;;;;;;11.30;8.10;;;24.20;66.80;;;;;;5034536;28;20095;-72
2021/08/05 02:38:19;;;;;;;10.70;7.80;;;24.20;66.90;;;;;;5034314;28;20044;-72
2021/08/05 02:40:47;;;;;;;10.40;9.25;;;24.20;66.90;;;;;;5034757;28;20124;-70
2021/08/05 02:43:14;;;;;;;9.40;8.10;;;24.20;67.10;;;;;;5034418;28;20025;-72
2021/08/05 02:45:41;;;;;;;10.15;7.68;;;24.10;67.10;;;;;;5033736;28;20040;-72
2021/08/05 02:48:08;;;;;;;9.80;8.35;;;24.10;67.10;;;;;;5034061;28;20427;-72
2021/08/05 02:50:35;;;;;;;8.95;7.72;;;24.20;67.20;;;;;;5034501;28;20375;-72
2021/08/05 02:53:02;;;;;;;8.52;7.28;;;24.20;67.20;;;;;;5033922;28;20017;-72
2021/08/05 02:55:29;;;;;;;11.40;8.48;;;24.20;67.20;;;;;;5033990;28;20026;-72
2021/08/05 02:57:55;;;;;;;9.52;8.52;;;24.10;67.20;;;;;;5033947;28;20100;-72
2021/08/05 03:00:22;;;;;;;12.85;7.88;;;24.10;67.30;;;;;;5033902;28;20115;-72
2021/08/05 03:02:48;;;;;;;9.18;8.27;;;24.00;67.30;;;;;;5034147;28;20369;-72
2021/08/05 03:05:16;;;;;;;10.00;8.43;;;24.00;67.40;;;;;;5033733;28;20033;-72
2021/08/05 03:07:42;;;;;;;13.15;8.80;;;24.00;67.50;;;;;;5033729;28;20029;-72
2021/08/05 03:10:09;;;;;;;12.18;8.40;;;23.90;67.60;;;;;;5034027;28;20034;-72
2021/08/05 03:12:35;;;;;;;9.80;7.97;;;24.00;67.70;;;;;;5033932;28;20100;-72
2021/08/05 03:15:01;;;;;;;14.30;8.55;;;23.90;67.60;;;;;;5033628;28;20445;-76
2021/08/05 03:17:26;;;;;;;9.15;8.18;;;23.90;67.60;;;;;;5033570;28;20036;-72
2021/08/05 03:19:52;;;;;;;10.88;8.00;;;23.90;67.60;;;;;;5034062;28;20028;-72
2021/08/05 03:22:18;;;;;;;11.40;7.45;;;23.90;67.70;;;;;;5034353;28;20025;-72
2021/08/05 03:24:44;;;;;;;10.00;8.13;;;23.90;67.60;;;;;;5033945;28;20061;-72
2021/08/05 03:27:11;;;;;;;12.15;7.85;;;23.90;67.50;;;;;;5033194;28;20479;-72
2021/08/05 03:29:37;;;;;;;12.00;8.82;;;23.90;67.40;;;;;;5033796;28;20064;-71
2021/08/05 03:32:04;;;;;;;17.88;8.85;;;23.90;67.30;;;;;;5032628;28;20026;-72
2021/08/05 03:34:30;;;;;;;12.50;8.90;;;23.80;66.90;;;;;;5033710;28;20034;-72
2021/08/05 03:36:56;;;;;;;13.13;9.38;;;23.80;66.70;;;;;;5033908;28;20068;-72
2021/08/05 03:39:22;;;;;;;13.50;9.50;;;23.70;66.10;;;;;;5033070;28;20053;-72
2021/08/05 03:41:48;;;;;;;15.00;9.20;;;23.60;65.60;;;;;;5033080;28;20061;-72
2021/08/05 03:44:14;;;;;;;12.23;9.82;;;23.50;65.10;;;;;;5032994;28;20468;-72
2021/08/05 03:46:40;;;;;;;15.70;9.63;;;23.50;64.70;;;;;;5033070;28;20097;-72
2021/08/05 03:49:06;;;;;;;12.50;9.23;;;23.50;64.70;;;;;;5032999;28;20037;-72
2021/08/05 03:51:32;;;;;;;14.40;9.75;;;23.40;64.70;;;;;;5032955;28;20026;-72
2021/08/05 03:53:58;;;;;;;14.43;10.35;;;23.40;64.60;;;;;;5033397;28;20129;-72
2021/08/05 03:56:23;;;;;;;15.45;12.68;;;23.30;64.50;;;;;;5033195;28;20026;-72
2021/08/05 03:58:49;;;;;;;16.52;12.02;;;23.30;64.50;;;;;;5032943;28;20480;-72
2021/08/05 04:01:15;;;;;;;14.95;11.90;;;23.20;64.40;;;;;;5033236;28;20057;-72
2021/08/05 04:03:40;;;;;;;14.45;10.82;;;23.20;64.40;;;;;;5033124;28;20544;-73
2021/08/05 04:06:08;;;;;;;14.23;9.55;;;23.20;64.40;;;;;;5032772;28;20037;-72
2021/08/05 04:08:34;;;;;;;14.15;10.30;;;23.10;64.40;;;;;;5033104;28;20112;-71
2021/08/05 04:11:00;;;;;;;11.50;9.82;;;23.10;64.60;;;;;;5033350;28;20021;-72
2021/08/05 04:13:26;;;;;;;11.75;9.25;;;23.10;64.70;;;;;;5032650;28;20030;-72
2021/08/05 04:15:51;;;;;;;16.20;9.02;;;23.00;64.90;;;;;;5032915;28;20029;-72
2021/08/05 04:18:17;;;;;;;13.30;9.38;;;23.00;65.10;;;;;;5033281;28;20029;-72
2021/08/05 04:20:43;;;;;;;13.23;9.32;;;22.90;65.30;;;;;;5033218;28;20031;-72
2021/08/05 04:23:08;;;;;;;13.32;9.00;;;22.90;65.50;;;;;;5032878;28;20399;-72
2021/08/05 04:25:34;;;;;;;10.63;9.45;;;22.90;65.70;;;;;;5032512;28;20033;-72
2021/08/05 04:28:00;;;;;;;11.07;9.07;;;22.90;65.90;;;;;;5033121;28;20029;-72
2021/08/05 04:30:25;;;;;;;11.70;9.00;;;22.90;65.90;;;;;;5032891;28;20080;-72
2021/08/05 04:32:52;;;;;;;21.17;9.70;;;23.00;66.00;;;;;;5033009;28;20050;-71
2021/08/05 04:35:18;;;;;;;14.63;9.02;;;22.90;65.70;;;;;;5032869;28;20029;-72
2021/08/05 04:37:58;;;;;;;11.98;8.43;;;23.00;66.40;;;;;;5031656;28;20026;-72
2021/08/05 04:40:26;;;;;;;9.55;8.48;;;23.00;65.90;;;;;;5032978;28;20057;-71
2021/08/05 04:42:52;;;;;;;16.63;9.10;;;23.00;65.90;;;;;;5032598;28;20348;-72
2021/08/05 04:45:18;;;;;;;12.05;8.80;;;23.00;65.80;;;;;;5036344;28;20038;-73
2021/08/05 04:47:56;;;;;;;15.00;7.95;;;23.00;65.90;;;;;;5036430;28;20034;-71
2021/08/05 04:50:25;;;;;;;11.88;7.90;;;23.10;66.00;;;;;;5036242;28;20113;-71
2021/08/05 04:52:51;;;;;;;9.98;8.25;;;23.10;65.80;;;;;;5036124;28;20088;-71
2021/08/05 04:55:17;;;;;;;12.27;8.60;;;23.20;65.70;;;;;;5035834;28;20025;-74
2021/08/05 04:58:09;;;;;;;23.25;8.85;;;23.20;65.70;;;;;;5035743;28;20026;-71
2021/08/05 05:00:40;;;;;;;11.00;9.07;;;23.30;65.40;;;;;;5033489;28;20069;-72
2021/08/05 05:03:06;;;;;;;11.65;8.98;;;23.40;65.40;;;;;;5035431;28;20120;-72
2021/08/05 05:05:32;;;;;;;14.27;8.63;;;23.50;65.20;;;;;;5035477;28;20411;-71
2021/08/05 05:08:19;;;;;;;11.25;8.93;;;23.60;65.10;;;;;;5035632;28;20033;-72
2021/08/05 05:10:46;;;;;;;11.23;8.98;;;23.70;65.00;;;;;;5036365;28;20022;-72
2021/08/05 05:13:12;;;;;;;11.40;8.57;;;23.80;64.70;;;;;;5035811;28;20115;-73
2021/08/05 05:15:38;;;;;;;11.38;8.25;;;23.90;64.80;;;;;;5035674;28;20040;-72
2021/08/05 05:18:05;;;;;;;9.63;8.63;;;23.90;64.50;;;;;;5035482;28;20036;-72
2021/08/05 05:20:32;;;;;;;9.88;8.80;;;23.90;64.40;;;;;;5035283;28;20021;-72
2021/08/05 05:22:58;;;;;;;12.93;8.57;;;24.00;64.40;;;;;;5035431;28;20037;-72
2021/08/05 05:25:23;;;;;;;10.85;9.38;;;24.00;64.30;;;;;;5034826;28;20030;-72
2021/08/05 05:27:49;;;;;;;13.27;9.07;;;24.00;64.30;;;;;;5035411;28;20055;-72
2021/08/05 05:30:15;;;;;;;11.50;9.00;;;24.20;64.20;;;;;;5035293;28;20033;-71
2021/08/05 05:32:43;;;;;;;14.15;9.65;;;24.30;64.00;;;;;;5035018;28;20032;-73
2021/08/05 05:35:10;;;;;;;14.60;9.30;;;24.30;63.80;;;;;;5033973;28;20117;-76
2021/08/05 05:37:36;;;;;;;11.60;9.30;;;24.50;63.70;;;;;;5035890;28;20083;-72
2021/08/05 05:40:04;;;;;;;13.20;9.32;;;24.70;63.50;;;;;;5034952;28;20087;-74
2021/08/05 05:42:30;;;;;;;15.07;11.73;;;24.80;63.10;;;;;;5035003;28;20045;-71
2021/08/05 05:44:57;;;;;;;16.73;11.75;;;24.90;62.80;;;;;;5035108;28;20036;-72
2021/08/05 05:47:23;;;;;;;15.05;10.18;;;25.00;62.60;;;;;;5034946;28;20034;-71
2021/08/05 05:49:48;;;;;;;14.05;9.65;;;25.10;62.40;;;;;;5035134;28;20033;-71
2021/08/05 05:52:15;;;;;;;12.88;9.70;;;25.20;62.30;;;;;;5034925;28;20071;-72
2021/08/05 05:54:41;;;;;;;14.70;9.32;;;25.30;62.20;;;;;;5034345;28;20025;-72
2021/08/05 05:57:06;;;;;;;14.35;10.15;;;25.30;62.10;;;;;;5034836;28;20092;-72
2021/08/05 05:59:32;;;;;;;15.90;10.23;;;25.40;62.10;;;;;;5034731;28;20029;-72
2021/08/05 06:01:58;;;;;;;14.45;9.07;;;25.40;62.10;;;;;;5034801;28;20120;-72
2021/08/05 06:04:24;;;;;;;16.77;9.55;;;25.40;62.00;;;;;;5032930;28;20411;-71
2021/08/05 06:06:49;;;;;;;13.43;9.85;;;25.50;61.90;;;;;;5034542;28;20025;-72
2021/08/05 06:09:15;;;;;;;13.98;10.35;;;25.40;61.70;;;;;;5035125;28;20029;-73
2021/08/05 06:11:40;;;;;;;17.02;9.98;;;25.50;61.70;;;;;;5034395;28;20356;-71
2021/08/05 06:14:06;;;;;;;11.90;9.75;;;25.50;61.70;;;;;;5034618;28;20111;-71
2021/08/05 06:16:32;;;;;;;15.10;9.68;;;25.60;61.60;;;;;;5034039;28;20468;-72
2021/08/05 06:18:58;;;;;;;13.20;10.32;;;25.70;61.50;;;;;;5034843;28;20026;-72
2021/08/05 06:21:23;;;;;;;17.13;9.85;;;25.70;61.40;;;;;;5034584;28;20025;-73
2021/08/05 06:23:49;;;;;;;14.18;9.88;;;25.70;61.40;;;;;;5034729;28;20040;-72
2021/08/05 06:26:19;;;;;;;15.52;9.32;;;25.80;61.10;;;;;;5035174;28;20045;-73
2021/08/05 06:28:44;;;;;;;13.35;9.10;;;25.90;61.00;;;;;;5034647;28;20034;-73
2021/08/05 06:31:11;;;;;;;13.45;9.95;;;26.00;60.60;;;;;;5033056;28;20079;-72
2021/08/05 06:33:37;;;;;;;19.00;10.07;;;26.10;60.50;;;;;;5034490;28;20044;-74
2021/08/05 06:36:03;;;;;;;11.50;9.57;;;26.20;60.40;;;;;;5034212;28;20034;-73
2021/08/05 06:38:29;;;;;;;12.82;9.30;;;26.30;60.40;;;;;;5034228;28;20025;-74
2021/08/05 06:40:55;;;;;;;16.38;10.45;;;26.40;60.00;;;;;;5034500;28;20028;-72
2021/08/05 06:43:20;;;;;;;13.15;9.82;;;26.50;60.40;;;;;;5033934;28;20033;-73
2021/08/05 06:45:46;;;;;;;13.95;9.50;;;26.60;59.60;;;;;;5034168;28;20468;-73
2021/08/05 06:48:12;;;;;;;13.57;10.07;;;26.70;59.50;;;;;;5034173;28;20460;-74
2021/08/05 06:50:38;;;;;;;15.65;10.30;;;26.70;59.30;;;;;;5034121;28;20029;-74
2021/08/05 06:53:03;;;;;;;19.70;11.27;;;26.80;59.40;;;;;;5034734;28;20470;-73
2021/08/05 06:55:29;;;;;;;15.85;12.50;;;26.90;59.20;;;;;;5033883;28;20033;-73
2021/08/05 06:57:55;;;;;;;20.23;10.25;;;27.00;59.20;;;;;;5034413;28;20028;-72
2021/08/05 07:00:20;;;;;;;16.08;12.38;;;27.10;59.80;;;;;;5034528;28;20034;-73
2021/08/05 07:02:46;;;;;;;17.05;12.07;;;27.20;58.90;;;;;;5033325;28;20057;-72
2021/08/05 07:05:12;;;;;;;13.00;10.35;;;27.40;58.70;;;;;;5034028;28;20038;-72
2021/08/05 07:07:38;;;;;;;15.73;10.20;;;27.60;58.40;;;;;;5033686;28;20037;-72
2021/08/05 07:10:05;;;;;;;11.40;9.40;;;27.70;57.90;;;;;;5034033;28;20034;-72
2021/08/05 07:12:32;;;;;;;14.68;9.25;;;27.80;57.50;;;;;;5033911;28;20037;-72
2021/08/05 07:14:58;;;;;;;10.27;8.60;;;27.80;57.20;;;;;;5033603;28;20064;-72
2021/08/05 07:17:24;;;;;;;9.68;7.72;;;28.00;57.10;;;;;;5033563;28;20026;-72
2021/08/05 07:19:50;;;;;;;14.75;9.48;;;28.20;56.80;;;;;;5033610;28;20079;-71
2021/08/05 07:22:16;;;;;;;11.23;9.18;;;28.30;56.60;;;;;;5034242;28;20446;-73
2021/08/05 07:24:42;;;;;;;11.40;7.45;;;28.40;56.70;;;;;;5033450;28;20168;-72
2021/08/05 07:27:08;;;;;;;10.80;7.63;;;28.60;55.80;;;;;;5033556;28;20025;-72
2021/08/05 07:29:34;;;;;;;17.55;8.35;;;28.70;55.40;;;;;;5032975;28;20376;-72
2021/08/05 07:32:03;;;;;;;13.70;8.52;;;28.90;55.00;;;;;;5033136;28;20030;-73
2021/08/05 07:34:30;;;;;;;11.77;6.85;;;29.10;54.90;;;;;;5033539;28;20033;-73
2021/08/05 07:36:55;;;;;;;7.95;6.55;;;29.20;54.30;;;;;;5033480;28;20025;-73
2021/08/05 07:39:21;;;;;;;9.15;6.43;;;29.30;53.70;;;;;;5033314;28;20037;-72
2021/08/05 07:41:47;;;;;;;9.63;6.15;;;29.30;53.00;;;;;;5032072;28;20025;-72
2021/08/05 07:44:13;;;;;;;7.38;5.65;;;29.30;52.80;;;;;;5033313;28;20060;-72
2021/08/05 07:46:39;;;;;;;10.43;5.93;;;29.30;52.40;;;;;;5033493;28;20056;-72
2021/08/05 07:49:04;;;;;;;9.35;6.78;;;29.30;52.40;;;;;;5033239;28;20033;-72
2021/08/05 07:51:30;;;;;;;8.90;6.25;;;29.40;52.60;;;;;;5033184;28;20025;-72
2021/08/05 07:53:56;;;;;;;8.85;5.38;;;29.50;52.60;;;;;;5033097;28;20395;-72
2021/08/05 07:56:22;;;;;;;9.93;5.63;;;29.60;52.10;;;;;;5033394;28;20029;-72
2021/08/05 07:58:49;;;;;;;12.85;5.47;;;29.70;51.80;;;;;;5033127;28;20034;-71
2021/08/05 08:01:14;;;;;;;8.40;5.95;;;29.70;51.50;;;;;;5033484;28;20025;-72
2021/08/05 08:03:40;;;;;;;11.55;5.90;;;29.70;52.20;;;;;;5031942;28;20049;-73
2021/08/05 08:06:06;;;;;;;6.43;5.55;;;29.80;51.60;;;;;;5032966;28;20036;-72
2021/08/05 08:08:32;;;;;;;7.28;5.20;;;29.90;51.60;;;;;;5032931;28;20475;-72
2021/08/05 08:10:58;;;;;;;7.05;5.32;;;30.00;51.60;;;;;;5033135;28;20029;-72
2021/08/05 08:13:24;;;;;;;5.72;4.75;;;30.10;51.20;;;;;;5033141;28;20030;-73
2021/08/05 08:15:50;;;;;;;6.57;4.72;;;30.20;50.70;;;;;;5033147;28;20033;-73
2021/08/05 08:18:16;;;;;;;7.22;4.53;;;30.20;50.50;;;;;;5034361;28;20022;-73
2021/08/05 08:53:34;;;;;;;7.70;4.40;;;30.50;50.50;;;;;;5113476;27;1327111;-76
2021/08/05 08:56:04;;;;;;;7.93;4.70;;;31.60;50.00;;;;;;5131892;27;20496;-76
2021/08/05 08:58:31;;;;;;;7.22;4.15;;;31.80;49.40;;;;;;5117991;27;20020;-77
2021/08/05 09:00:56;;;;;;;5.00;4.50;;;31.90;48.50;;;;;;5110037;28;20417;-76
2021/08/05 09:03:22;;;;;;;5.88;4.13;;;31.90;48.20;;;;;;5109922;28;20028;-76
2021/08/05 09:05:48;;;;;;;4.65;3.85;;;32.10;48.40;;;;;;5111097;28;20118;-76
2021/08/05 09:08:14;;;;;;;4.93;4.40;;;32.20;48.10;;;;;;5110232;28;20062;-77
2021/08/05 09:10:40;;;;;;;6.15;4.80;;;32.20;48.00;;;;;;5111121;28;20028;-76
2021/08/05 09:13:07;;;;;;;7.25;4.72;;;32.40;48.00;;;;;;5110896;28;20455;-81
2021/08/05 09:15:40;;;;;;;8.15;4.63;;;32.60;47.90;;;;;;5111456;28;20375;-75
2021/08/05 09:18:26;;;;;;;6.70;4.80;;;32.90;47.80;;;;;;5111057;28;20466;-81
2021/08/05 09:21:10;;;;;;;7.18;4.00;;;33.20;47.20;;;;;;5111166;28;20085;-76
2021/08/05 09:23:50;;;;;;;4.90;4.30;;;33.40;46.50;;;;;;5109890;28;20031;-76
2021/08/05 09:26:42;;;;;;;5.75;3.92;;;33.60;46.20;;;;;;5114231;28;20027;-86
2021/08/05 09:29:23;;;;;;;4.20;3.63;;;33.50;45.70;;;;;;5081371;28;20060;-79
2021/08/05 09:31:51;;;;;;;9.55;3.88;;;33.60;45.20;;;;;;5089466;28;20383;-79
2021/08/05 09:34:18;;;;;;;8.93;3.70;;;33.80;44.70;;;;;;5089590;28;20043;-77
2021/08/05 09:36:46;;;;;;;5.35;3.83;;;34.00;44.60;;;;;;5086667;28;20376;-78
2021/08/05 09:39:18;;;;;;;8.88;3.58;;;34.20;44.20;;;;;;5069790;28;20033;-76
2021/08/05 09:41:57;;;;;;;10.00;4.53;;;34.30;43.40;;;;;;5069918;28;20474;-77
2021/08/05 09:44:25;;;;;;;6.40;3.45;;;34.60;43.40;;;;;;5069848;28;20079;-76
2021/08/05 09:47:13;;;;;;;5.82;4.05;;;34.80;43.20;;;;;;5070280;28;20024;-77
2021/08/05 09:49:59;;;;;;;3.72;3.42;;;34.60;42.80;;;;;;5068447;28;20033;-77
2021/08/05 09:52:33;;;;;;;7.68;3.92;;;34.50;42.70;;;;;;5072106;28;20054;-76
2021/08/05 09:55:00;;;;;;;5.45;4.30;;;34.40;42.90;;;;;;5089843;28;20456;-76
2021/08/05 09:57:34;;;;;;;4.20;3.63;;;34.30;43.20;;;;;;5088559;28;20394;-76
2021/08/05 10:00:05;;;;;;;6.25;3.42;;;34.30;42.80;;;;;;5089967;28;20100;-76
2021/08/05 10:02:40;;;;;;;3.83;3.42;;;34.40;41.90;;;;;;5071181;28;20523;-75
2021/08/05 10:05:19;;;;;;;7.72;3.47;;;34.40;41.70;;;;;;5057894;28;20028;-76
2021/08/05 10:07:58;;;;;;;4.75;3.63;;;34.50;41.90;;;;;;5076406;28;20095;-76
2021/08/05 10:10:26;;;;;;;4.53;3.40;;;34.40;42.10;;;;;;5070033;28;20028;-76
2021/08/05 10:12:59;;;;;;;8.25;3.70;;;34.20;42.20;;;;;;5074491;28;20070;-76
2021/08/05 10:15:27;;;;;;;5.85;3.67;;;34.30;42.30;;;;;;5076130;28;20043;-77
2021/08/05 10:17:56;;;;;;;5.20;3.47;;;34.60;42.50;;;;;;5063678;28;20071;-75
2021/08/05 10:20:23;;;;;;;3.95;3.55;;;34.80;42.10;;;;;;5055992;28;20051;-77
2021/08/05 10:22:50;;;;;;;4.13;3.40;;;35.10;41.80;;;;;;5055748;28;20083;-77
2021/08/05 10:31:42;;;;;;;6.75;3.55;;;35.60;40.30;;;;;;5055674;28;20031;-77
2021/08/05 10:34:11;;;;;;;5.93;3.40;;;35.70;40.30;;;;;;5055844;28;20081;-76
2021/08/05 10:36:37;;;;;;;8.65;3.72;;;35.90;40.10;;;;;;5057055;28;20090;-75
2021/08/05 10:39:03;;;;;;;3.97;2.92;;;36.10;39.50;;;;;;5055372;28;20025;-76
2021/08/05 10:41:31;;;;;;;6.88;3.40;;;36.20;38.80;;;;;;5054177;28;20032;-75
2021/08/05 10:43:59;;;;;;;5.50;3.50;;;36.40;38.90;;;;;;5055750;28;20586;-76
2021/08/05 10:46:32;;;;;;;3.85;3.10;;;36.50;38.90;;;;;;5064218;28;20108;-75
2021/08/05 10:49:00;;;;;;;14.30;3.88;;;36.60;38.40;;;;;;5075447;28;20040;-76
2021/08/05 10:51:26;;;;;;;4.15;3.75;;;36.70;38.80;;;;;;5075428;28;20033;-76
2021/08/05 10:53:52;;;;;;;3.95;3.50;;;37.10;39.10;;;;;;5075283;28;20485;-77
2021/08/05 10:56:26;;;;;;;4.10;3.70;;;37.40;38.80;;;;;;5074941;28;20103;-76
2021/08/05 10:59:03;;;;;;;5.63;3.35;;;37.50;38.00;;;;;;5074976;28;20027;-76
2021/08/05 11:01:47;;;;;;;4.80;3.85;;;37.60;37.90;;;;;;5072450;28;20491;-76
2021/08/05 11:04:35;;;;;;;12.43;4.30;;;37.80;38.10;;;;;;5074731;28;20024;-76
2021/08/05 11:07:22;;;;;;;3.50;3.20;;;38.10;37.60;;;;;;5055335;28;20020;-76
2021/08/05 11:10:08;;;;;;;5.05;3.72;;;38.20;37.40;;;;;;5061198;28;20067;-76
2021/08/05 11:12:42;;;;;;;5.05;3.70;;;38.30;37.60;;;;;;5054309;28;20068;-76
2021/08/05 11:15:21;;;;;;;5.50;4.38;;;38.40;37.80;;;;;;5052619;28;20067;-76
2021/08/05 11:18:18;;;;;;;6.45;4.28;;;38.50;37.80;;;;;;5054929;28;20063;-78
2021/08/05 11:20:55;;;;;;;6.65;4.47;;;38.70;38.10;;;;;;5054846;28;20031;-77
2021/08/05 11:25:58;;;;;;;9.48;5.05;;;39.00;38.30;;;;;;5055136;28;20040;-75
2021/08/05 11:28:31;;;;;;;11.40;5.00;;;39.10;38.60;;;;;;5051592;28;20029;-83
2021/08/05 11:31:01;;;;;;;8.43;4.53;;;39.30;38.60;;;;;;5052566;28;20163;-75
2021/08/05 11:36:15;;;;;;;5.30;4.50;;;39.90;38.20;;;;;;5074031;28;20051;-76
2021/08/05 11:39:02;;;;;;;7.32;4.80;;;40.00;38.40;;;;;;5074573;28;20044;-76
2021/08/05 11:42:05;;;;;;;7.97;5.38;;;39.90;38.20;;;;;;5073227;28;20055;-75
2021/08/05 11:44:41;;;;;;;11.02;5.15;;;39.70;38.60;;;;;;5071636;28;20024;-76
2021/08/05 11:47:11;;;;;;;10.27;4.55;;;39.30;38.50;;;;;;5073681;28;20082;-75
2021/08/05 11:49:41;;;;;;;6.05;4.85;;;38.90;38.50;;;;;;5073929;28;20066;-75
2021/08/05 11:52:30;;;;;;;5.13;4.60;;;38.80;38.50;;;;;;5073067;28;20098;-75
2021/08/05 11:55:09;;;;;;;7.75;4.32;;;38.90;38.40;;;;;;5073893;28;20079;-78
2021/08/05 11:57:45;;;;;;;8.55;4.68;;;38.90;38.10;;;;;;5059773;28;20098;-76
2021/08/05 12:00:20;;;;;;;5.15;4.63;;;39.00;38.30;;;;;;5053230;28;20052;-74
2021/08/05 12:02:48;;;;;;;13.25;4.80;;;39.40;38.30;;;;;;5054158;28;20559;-76
2021/08/05 12:05:16;;;;;;;7.28;4.28;;;39.90;38.00;;;;;;5052439;28;20025;-76
2021/08/05 12:07:50;;;;;;;5.22;4.43;;;39.90;37.90;;;;;;5054082;28;20029;-76
2021/08/05 12:10:24;;;;;;;5.35;4.30;;;39.50;37.90;;;;;;5053998;28;20108;-78
2021/08/05 12:13:04;;;;;;;4.68;3.95;;;39.10;38.20;;;;;;5069270;28;20029;-76
2021/08/05 12:15:35;;;;;;;6.63;4.65;;;38.60;38.70;;;;;;5052502;28;20419;-77
2021/08/05 12:18:16;;;;;;;5.45;4.40;;;38.20;39.20;;;;;;5052850;28;20115;-75
2021/08/05 12:21:09;;;;;;;6.88;4.65;;;38.30;39.40;;;;;;5053722;28;20036;-76
2021/08/05 12:23:36;;;;;;;8.60;4.65;;;38.40;39.30;;;;;;5066129;28;20044;-76
2021/08/05 12:31:18;;;;;;;5.32;4.00;;;36.90;39.80;;;;;;5052857;28;20068;-80
2021/08/05 12:33:45;;;;;;;8.75;4.70;;;36.30;40.50;;;;;;5053887;28;20029;-78
2021/08/05 12:36:14;;;;;;;6.18;4.50;;;36.20;41.00;;;;;;5043227;28;20052;-78
2021/08/05 12:38:54;;;;;;;5.63;4.50;;;36.40;41.30;;;;;;5039634;28;20025;-78
2021/08/05 12:41:50;;;;;;;5.20;4.30;;;37.10;40.50;;;;;;5035961;28;20036;-78
2021/08/05 12:44:18;;;;;;;6.38;4.32;;;37.40;40.00;;;;;;5052250;28;20033;-78
2021/08/05 12:46:52;;;;;;;10.43;4.55;;;37.40;39.90;;;;;;5053689;28;20061;-77
2021/08/05 12:49:18;;;;;;;8.93;4.25;;;37.70;40.00;;;;;;5052054;28;20025;-78
2021/08/05 12:51:45;;;;;;;7.97;4.30;;;38.10;39.70;;;;;;5053411;28;20557;-76
2021/08/05 12:54:17;;;;;;;5.30;4.70;;;38.10;39.40;;;;;;5053632;28;20025;-76
2021/08/05 12:56:48;;;;;;;6.82;4.95;;;37.70;39.20;;;;;;5054078;28;20025;-76
2021/08/05 12:59:15;;;;;;;7.25;4.75;;;37.90;39.50;;;;;;5053715;28;20029;-79
2021/08/05 13:01:42;;;;;;;6.45;4.63;;;38.50;39.30;;;;;;5053323;28;20028;-76
2021/08/05 13:04:21;;;;;;;9.65;5.13;;;38.80;39.00;;;;;;5052817;28;20033;-76
2021/08/05 13:06:58;;;;;;;6.70;5.13;;;38.70;39.10;;;;;;5053431;28;20029;-76
2021/08/05 13:09:25;;;;;;;6.28;5.18;;;38.50;39.40;;;;;;5053463;28;20036;-76
2021/08/05 13:11:52;;;;;;;11.38;5.10;;;38.20;39.60;;;;;;5053315;28;20065;-77
2021/08/05 13:14:40;;;;;;;6.30;4.93;;;38.00;40.10;;;;;;5052203;28;20032;-82
2021/08/05 13:17:08;;;;;;;8.82;4.75;;;38.30;40.10;;;;;;5053593;28;20026;-76
2021/08/05 13:19:53;;;;;;;9.35;4.85;;;39.10;39.70;;;;;;5052987;28;20021;-76
2021/08/05 13:22:32;;;;;;;10.57;4.70;;;39.80;38.60;;;;;;5053238;28;20033;-78
2021/08/05 13:24:59;;;;;;;11.30;5.20;;;40.20;38.00;;;;;;5052132;28;20021;-76
2021/08/05 13:27:25;;;;;;;7.68;5.07;;;40.40;38.00;;;;;;5053311;28;20037;-76
2021/08/05 13:29:52;;;;;;;7.78;5.13;;;40.60;37.80;;;;;;5053175;28;20033;-77
2021/08/05 13:32:24;;;;;;;16.55;5.00;;;40.90;37.80;;;;;;5053147;28;20388;-77
2021/08/05 13:34:58;;;;;;;6.53;4.55;;;41.30;37.30;;;;;;5051947;28;20100;-77
2021/08/05 13:37:30;;;;;;;8.32;5.13;;;41.40;36.90;;;;;;5053088;28;20061;-76
2021/08/05 13:40:02;;;;;;;5.32;4.75;;;41.50;36.80;;;;;;5054540;28;20029;-77
2021/08/05 13:42:28;;;;;;;6.87;4.60;;;41.50;36.80;;;;;;5057017;28;20025;-78
2021/08/05 13:44:55;;;;;;;5.82;4.30;;;41.40;36.40;;;;;;5054069;28;20085;-76